sensor_id;sensor_type;location;lat;lon;timestamp;P1;durP1;ratioP1;P2;durP2;ratioP2
19187;SDS011;9726;52.198;8.792;2023-10-31T00:00:28;6.23;;;3.50;;
19187;SDS011;9726;52.198;8.792;2023-10-31T00:02:55;6.07;;;3.57;;
19187;SDS011;9726;52.198;8.792;2023-10-31T00:05:22;5.87;;;3.40;;
19187;SDS011;9726;52.198;8.792;2023-10-31T00:07:50;6.43;;;2.97;;
19187;SDS011;9726;52.198;8.792;2023-10-31T00:10:17;7.53;;;2.77;;
19187;SDS011;9726;52.198;8.792;2023-10-31T00:12:45;6.37;;;2.73;;
19187;SDS011;9726;52.198;8.792;2023-10-31T00:15:13;7.57;;;2.83;;
19187;SDS011;9726;52.198;8.792;2023-10-31T00:17:40;8.03;;;3.17;;
19187;SDS011;9726;52.198;8.792;2023-10-31T00:20:08;3.70;;;2.80;;
19187;SDS011;9726;52.198;8.792;2023-10-31T00:22:36;7.37;;;2.57;;
19187;SDS011;9726;52.198;8.792;2023-10-31T00:25:03;8.97;;;2.97;;
19187;SDS011;9726;52.198;8.792;2023-10-31T00:27:31;6.10;;;2.37;;
19187;SDS011;9726;52.198;8.792;2023-10-31T00:29:58;4.13;;;2.70;;
19187;SDS011;9726;52.198;8.792;2023-10-31T00:32:26;4.03;;;2.83;;
19187;SDS011;9726;52.198;8.792;2023-10-31T00:34:54;5.70;;;2.73;;
19187;SDS011;9726;52.198;8.792;2023-10-31T00:37:21;5.17;;;3.40;;
19187;SDS011;9726;52.198;8.792;2023-10-31T00:39:49;5.10;;;2.67;;
19187;SDS011;9726;52.198;8.792;2023-10-31T00:42:16;5.67;;;3.23;;
19187;SDS011;9726;52.198;8.792;2023-10-31T00:44:44;7.33;;;3.27;;
19187;SDS011;9726;52.198;8.792;2023-10-31T00:47:12;5.77;;;3.30;;
19187;SDS011;9726;52.198;8.792;2023-10-31T00:49:41;7.07;;;3.20;;
19187;SDS011;9726;52.198;8.792;2023-10-31T00:52:08;10.93;;;3.60;;
19187;SDS011;9726;52.198;8.792;2023-10-31T00:54:36;7.03;;;4.00;;
19187;SDS011;9726;52.198;8.792;2023-10-31T00:57:03;16.10;;;4.20;;
19187;SDS011;9726;52.198;8.792;2023-10-31T00:59:31;3.77;;;3.33;;
19187;SDS011;9726;52.198;8.792;2023-10-31T01:01:58;5.53;;;3.87;;
19187;SDS011;9726;52.198;8.792;2023-10-31T01:04:25;5.60;;;3.50;;
19187;SDS011;9726;52.198;8.792;2023-10-31T01:06:53;5.60;;;3.73;;
19187;SDS011;9726;52.198;8.792;2023-10-31T01:09:21;8.37;;;3.80;;
19187;SDS011;9726;52.198;8.792;2023-10-31T01:11:49;7.63;;;3.20;;
19187;SDS011;9726;52.198;8.792;2023-10-31T01:14:16;5.33;;;4.20;;
19187;SDS011;9726;52.198;8.792;2023-10-31T01:16:43;3.93;;;3.10;;
19187;SDS011;9726;52.198;8.792;2023-10-31T01:19:11;5.00;;;3.00;;
19187;SDS011;9726;52.198;8.792;2023-10-31T01:21:39;6.93;;;3.60;;
19187;SDS011;9726;52.198;8.792;2023-10-31T01:24:07;10.03;;;3.40;;
19187;SDS011;9726;52.198;8.792;2023-10-31T01:26:35;7.40;;;2.97;;
19187;SDS011;9726;52.198;8.792;2023-10-31T01:29:02;6.07;;;3.20;;
19187;SDS011;9726;52.198;8.792;2023-10-31T01:31:30;5.10;;;3.07;;
19187;SDS011;9726;52.198;8.792;2023-10-31T01:34:05;5.93;;;2.93;;
19187;SDS011;9726;52.198;8.792;2023-10-31T01:36:32;4.37;;;2.90;;
19187;SDS011;9726;52.198;8.792;2023-10-31T01:39:00;4.70;;;3.43;;
19187;SDS011;9726;52.198;8.792;2023-10-31T01:41:28;7.20;;;4.00;;
19187;SDS011;9726;52.198;8.792;2023-10-31T01:43:56;7.13;;;3.60;;
19187;SDS011;9726;52.198;8.792;2023-10-31T01:46:24;6.23;;;4.07;;
19187;SDS011;9726;52.198;8.792;2023-10-31T01:48:51;7.77;;;3.60;;
19187;SDS011;9726;52.198;8.792;2023-10-31T01:51:20;7.97;;;4.57;;
19187;SDS011;9726;52.198;8.792;2023-10-31T01:53:48;4.93;;;4.37;;
19187;SDS011;9726;52.198;8.792;2023-10-31T01:56:15;5.00;;;4.03;;
19187;SDS011;9726;52.198;8.792;2023-10-31T01:58:43;3.43;;;3.13;;
19187;SDS011;9726;52.198;8.792;2023-10-31T02:01:10;6.03;;;3.87;;
19187;SDS011;9726;52.198;8.792;2023-10-31T02:03:39;5.00;;;4.17;;
19187;SDS011;9726;52.198;8.792;2023-10-31T02:06:06;7.20;;;4.00;;
19187;SDS011;9726;52.198;8.792;2023-10-31T02:08:34;5.93;;;4.50;;
19187;SDS011;9726;52.198;8.792;2023-10-31T02:11:02;7.00;;;5.97;;
19187;SDS011;9726;52.198;8.792;2023-10-31T02:13:30;6.40;;;4.60;;
19187;SDS011;9726;52.198;8.792;2023-10-31T02:15:58;6.87;;;4.80;;
19187;SDS011;9726;52.198;8.792;2023-10-31T02:18:25;7.00;;;5.47;;
19187;SDS011;9726;52.198;8.792;2023-10-31T02:20:53;8.63;;;5.83;;
19187;SDS011;9726;52.198;8.792;2023-10-31T02:23:21;6.37;;;5.67;;
19187;SDS011;9726;52.198;8.792;2023-10-31T02:25:48;7.00;;;5.60;;
19187;SDS011;9726;52.198;8.792;2023-10-31T02:28:16;8.97;;;5.70;;
19187;SDS011;9726;52.198;8.792;2023-10-31T02:30:44;14.77;;;6.67;;
19187;SDS011;9726;52.198;8.792;2023-10-31T02:33:30;9.37;;;7.63;;
19187;SDS011;9726;52.198;8.792;2023-10-31T02:35:57;9.13;;;7.73;;
19187;SDS011;9726;52.198;8.792;2023-10-31T02:38:24;8.30;;;7.43;;
19187;SDS011;9726;52.198;8.792;2023-10-31T02:40:57;12.07;;;8.80;;
19187;SDS011;9726;52.198;8.792;2023-10-31T02:43:24;13.40;;;8.87;;
19187;SDS011;9726;52.198;8.792;2023-10-31T02:45:53;14.70;;;11.13;;
19187;SDS011;9726;52.198;8.792;2023-10-31T02:48:21;16.80;;;13.30;;
19187;SDS011;9726;52.198;8.792;2023-10-31T02:50:51;16.73;;;13.77;;
19187;SDS011;9726;52.198;8.792;2023-10-31T02:53:19;20.80;;;14.07;;
19187;SDS011;9726;52.198;8.792;2023-10-31T02:55:51;17.93;;;13.43;;
19187;SDS011;9726;52.198;8.792;2023-10-31T02:58:19;14.57;;;12.80;;
19187;SDS011;9726;52.198;8.792;2023-10-31T03:00:47;14.07;;;11.20;;
19187;SDS011;9726;52.198;8.792;2023-10-31T03:03:14;13.60;;;9.83;;
19187;SDS011;9726;52.198;8.792;2023-10-31T03:05:43;11.90;;;8.90;;
19187;SDS011;9726;52.198;8.792;2023-10-31T03:08:11;10.17;;;7.67;;
19187;SDS011;9726;52.198;8.792;2023-10-31T03:10:40;8.27;;;5.10;;
19187;SDS011;9726;52.198;8.792;2023-10-31T03:13:09;5.57;;;4.80;;
19187;SDS011;9726;52.198;8.792;2023-10-31T03:15:38;6.67;;;3.80;;
19187;SDS011;9726;52.198;8.792;2023-10-31T03:18:06;4.77;;;4.27;;
19187;SDS011;9726;52.198;8.792;2023-10-31T03:20:35;5.77;;;3.77;;
19187;SDS011;9726;52.198;8.792;2023-10-31T03:23:02;8.23;;;4.77;;
19187;SDS011;9726;52.198;8.792;2023-10-31T03:25:29;7.17;;;3.80;;
19187;SDS011;9726;52.198;8.792;2023-10-31T03:27:57;5.33;;;3.57;;
19187;SDS011;9726;52.198;8.792;2023-10-31T03:30:25;5.47;;;3.33;;
19187;SDS011;9726;52.198;8.792;2023-10-31T03:32:53;3.90;;;3.03;;
19187;SDS011;9726;52.198;8.792;2023-10-31T03:35:21;3.67;;;3.37;;
19187;SDS011;9726;52.198;8.792;2023-10-31T03:37:48;4.47;;;2.87;;
19187;SDS011;9726;52.198;8.792;2023-10-31T03:40:16;2.03;;;1.83;;
19187;SDS011;9726;52.198;8.792;2023-10-31T03:42:45;2.00;;;1.60;;
19187;SDS011;9726;52.198;8.792;2023-10-31T03:45:13;1.30;;;1.03;;
19187;SDS011;9726;52.198;8.792;2023-10-31T03:47:41;1.10;;;0.97;;
19187;SDS011;9726;52.198;8.792;2023-10-31T03:50:11;1.00;;;1.00;;
19187;SDS011;9726;52.198;8.792;2023-10-31T03:52:41;0.60;;;0.50;;
19187;SDS011;9726;52.198;8.792;2023-10-31T03:55:09;1.07;;;0.70;;
19187;SDS011;9726;52.198;8.792;2023-10-31T03:57:37;0.50;;;0.50;;
19187;SDS011;9726;52.198;8.792;2023-10-31T04:00:05;1.07;;;0.70;;
19187;SDS011;9726;52.198;8.792;2023-10-31T04:02:41;0.40;;;0.40;;
19187;SDS011;9726;52.198;8.792;2023-10-31T04:05:10;0.77;;;0.50;;
19187;SDS011;9726;52.198;8.792;2023-10-31T04:07:38;2.73;;;0.70;;
19187;SDS011;9726;52.198;8.792;2023-10-31T04:10:07;2.13;;;0.47;;
19187;SDS011;9726;52.198;8.792;2023-10-31T04:12:34;1.20;;;0.50;;
19187;SDS011;9726;52.198;8.792;2023-10-31T04:15:04;2.83;;;1.03;;
19187;SDS011;9726;52.198;8.792;2023-10-31T04:17:32;0.47;;;0.47;;
19187;SDS011;9726;52.198;8.792;2023-10-31T04:20:01;0.87;;;0.60;;
19187;SDS011;9726;52.198;8.792;2023-10-31T04:22:30;1.23;;;0.50;;
19187;SDS011;9726;52.198;8.792;2023-10-31T04:24:58;4.50;;;0.70;;
19187;SDS011;9726;52.198;8.792;2023-10-31T04:27:27;1.23;;;0.60;;
19187;SDS011;9726;52.198;8.792;2023-10-31T04:29:55;0.50;;;0.47;;
19187;SDS011;9726;52.198;8.792;2023-10-31T04:32:23;3.20;;;0.40;;
19187;SDS011;9726;52.198;8.792;2023-10-31T04:34:51;0.70;;;0.70;;
19187;SDS011;9726;52.198;8.792;2023-10-31T04:37:18;3.77;;;1.07;;
19187;SDS011;9726;52.198;8.792;2023-10-31T04:39:47;4.43;;;0.80;;
19187;SDS011;9726;52.198;8.792;2023-10-31T04:42:14;1.90;;;1.47;;
19187;SDS011;9726;52.198;8.792;2023-10-31T04:44:43;3.87;;;1.47;;
19187;SDS011;9726;52.198;8.792;2023-10-31T04:47:11;8.00;;;0.83;;
19187;SDS011;9726;52.198;8.792;2023-10-31T04:49:39;1.10;;;1.00;;
19187;SDS011;9726;52.198;8.792;2023-10-31T04:52:07;1.23;;;0.90;;
19187;SDS011;9726;52.198;8.792;2023-10-31T04:54:34;2.77;;;0.83;;
19187;SDS011;9726;52.198;8.792;2023-10-31T04:57:03;1.93;;;0.90;;
19187;SDS011;9726;52.198;8.792;2023-10-31T04:59:31;1.60;;;0.80;;
19187;SDS011;9726;52.198;8.792;2023-10-31T05:01:59;5.33;;;1.43;;
19187;SDS011;9726;52.198;8.792;2023-10-31T05:04:27;5.67;;;1.27;;
19187;SDS011;9726;52.198;8.792;2023-10-31T05:06:56;2.80;;;1.40;;
19187;SDS011;9726;52.198;8.792;2023-10-31T05:09:24;1.57;;;1.30;;
19187;SDS011;9726;52.198;8.792;2023-10-31T05:11:52;5.80;;;1.70;;
19187;SDS011;9726;52.198;8.792;2023-10-31T05:14:20;3.03;;;1.97;;
19187;SDS011;9726;52.198;8.792;2023-10-31T05:16:48;3.77;;;1.90;;
19187;SDS011;9726;52.198;8.792;2023-10-31T05:19:17;2.77;;;1.70;;
19187;SDS011;9726;52.198;8.792;2023-10-31T05:21:44;4.97;;;2.50;;
19187;SDS011;9726;52.198;8.792;2023-10-31T05:24:12;9.03;;;3.83;;
19187;SDS011;9726;52.198;8.792;2023-10-31T05:26:40;5.43;;;2.50;;
19187;SDS011;9726;52.198;8.792;2023-10-31T05:29:10;4.70;;;2.87;;
19187;SDS011;9726;52.198;8.792;2023-10-31T05:31:38;10.80;;;3.27;;
19187;SDS011;9726;52.198;8.792;2023-10-31T05:34:06;6.93;;;3.37;;
19187;SDS011;9726;52.198;8.792;2023-10-31T05:36:33;7.77;;;4.30;;
19187;SDS011;9726;52.198;8.792;2023-10-31T05:39:01;7.60;;;4.07;;
19187;SDS011;9726;52.198;8.792;2023-10-31T05:41:34;7.20;;;3.33;;
19187;SDS011;9726;52.198;8.792;2023-10-31T05:44:52;7.87;;;5.03;;
19187;SDS011;9726;52.198;8.792;2023-10-31T05:47:40;8.57;;;4.20;;
19187;SDS011;9726;52.198;8.792;2023-10-31T05:50:19;5.63;;;3.77;;
19187;SDS011;9726;52.198;8.792;2023-10-31T05:53:13;7.33;;;4.07;;
19187;SDS011;9726;52.198;8.792;2023-10-31T05:55:43;12.63;;;5.23;;
19187;SDS011;9726;52.198;8.792;2023-10-31T05:58:20;12.30;;;4.10;;
19187;SDS011;9726;52.198;8.792;2023-10-31T06:00:52;9.57;;;4.53;;
19187;SDS011;9726;52.198;8.792;2023-10-31T06:03:22;7.17;;;3.93;;
19187;SDS011;9726;52.198;8.792;2023-10-31T06:05:59;7.57;;;4.53;;
19187;SDS011;9726;52.198;8.792;2023-10-31T06:08:40;11.70;;;5.10;;
19187;SDS011;9726;52.198;8.792;2023-10-31T06:11:08;7.37;;;4.87;;
19187;SDS011;9726;52.198;8.792;2023-10-31T06:13:42;8.50;;;5.47;;
19187;SDS011;9726;52.198;8.792;2023-10-31T06:16:09;9.17;;;5.47;;
19187;SDS011;9726;52.198;8.792;2023-10-31T06:18:38;7.37;;;5.37;;
19187;SDS011;9726;52.198;8.792;2023-10-31T06:24:15;11.93;;;5.27;;
19187;SDS011;9726;52.198;8.792;2023-10-31T06:26:47;11.23;;;5.47;;
19187;SDS011;9726;52.198;8.792;2023-10-31T06:29:18;11.00;;;6.20;;
19187;SDS011;9726;52.198;8.792;2023-10-31T06:32:10;10.53;;;5.77;;
19187;SDS011;9726;52.198;8.792;2023-10-31T06:35:10;10.23;;;6.20;;
19187;SDS011;9726;52.198;8.792;2023-10-31T06:38:04;8.63;;;5.70;;
19187;SDS011;9726;52.198;8.792;2023-10-31T06:41:37;9.43;;;6.60;;
19187;SDS011;9726;52.198;8.792;2023-10-31T06:44:05;13.37;;;7.20;;
19187;SDS011;9726;52.198;8.792;2023-10-31T06:46:42;11.63;;;7.17;;
19187;SDS011;9726;52.198;8.792;2023-10-31T06:49:10;15.93;;;8.63;;
19187;SDS011;9726;52.198;8.792;2023-10-31T06:51:37;15.30;;;8.60;;
19187;SDS011;9726;52.198;8.792;2023-10-31T06:54:04;15.00;;;9.23;;
19187;SDS011;9726;52.198;8.792;2023-10-31T06:56:32;17.10;;;9.13;;
19187;SDS011;9726;52.198;8.792;2023-10-31T06:58:59;14.47;;;9.20;;
19187;SDS011;9726;52.198;8.792;2023-10-31T07:01:27;14.87;;;9.63;;
19187;SDS011;9726;52.198;8.792;2023-10-31T07:03:54;18.10;;;10.00;;
19187;SDS011;9726;52.198;8.792;2023-10-31T07:06:21;15.60;;;7.53;;
19187;SDS011;9726;52.198;8.792;2023-10-31T07:08:49;14.70;;;7.50;;
19187;SDS011;9726;52.198;8.792;2023-10-31T07:11:17;10.13;;;6.13;;
19187;SDS011;9726;52.198;8.792;2023-10-31T07:13:47;10.00;;;5.53;;
19187;SDS011;9726;52.198;8.792;2023-10-31T07:16:15;11.33;;;6.33;;
19187;SDS011;9726;52.198;8.792;2023-10-31T07:18:43;8.00;;;4.93;;
19187;SDS011;9726;52.198;8.792;2023-10-31T07:21:10;7.27;;;5.07;;
19187;SDS011;9726;52.198;8.792;2023-10-31T07:23:37;6.93;;;4.73;;
19187;SDS011;9726;52.198;8.792;2023-10-31T07:26:05;4.70;;;3.20;;
19187;SDS011;9726;52.198;8.792;2023-10-31T07:28:32;7.40;;;4.23;;
19187;SDS011;9726;52.198;8.792;2023-10-31T07:30:59;5.67;;;4.10;;
19187;SDS011;9726;52.198;8.792;2023-10-31T07:33:27;8.63;;;3.50;;
19187;SDS011;9726;52.198;8.792;2023-10-31T07:35:55;4.57;;;3.30;;
19187;SDS011;9726;52.198;8.792;2023-10-31T07:38:22;6.40;;;3.50;;
19187;SDS011;9726;52.198;8.792;2023-10-31T07:40:49;5.23;;;3.43;;
19187;SDS011;9726;52.198;8.792;2023-10-31T07:43:17;6.03;;;3.53;;
19187;SDS011;9726;52.198;8.792;2023-10-31T07:45:45;5.17;;;3.10;;
19187;SDS011;9726;52.198;8.792;2023-10-31T07:48:14;6.93;;;2.83;;
19187;SDS011;9726;52.198;8.792;2023-10-31T07:50:42;5.10;;;2.57;;
19187;SDS011;9726;52.198;8.792;2023-10-31T07:53:09;4.87;;;3.00;;
19187;SDS011;9726;52.198;8.792;2023-10-31T07:55:37;2.40;;;2.20;;
19187;SDS011;9726;52.198;8.792;2023-10-31T07:58:05;4.73;;;2.53;;
19187;SDS011;9726;52.198;8.792;2023-10-31T08:00:33;3.47;;;2.67;;
19187;SDS011;9726;52.198;8.792;2023-10-31T08:03:01;3.13;;;2.10;;
19187;SDS011;9726;52.198;8.792;2023-10-31T08:05:29;3.40;;;2.17;;
19187;SDS011;9726;52.198;8.792;2023-10-31T08:07:57;5.77;;;2.13;;
19187;SDS011;9726;52.198;8.792;2023-10-31T08:10:25;3.67;;;2.20;;
19187;SDS011;9726;52.198;8.792;2023-10-31T08:12:52;2.53;;;2.10;;
19187;SDS011;9726;52.198;8.792;2023-10-31T08:15:20;4.60;;;2.10;;
19187;SDS011;9726;52.198;8.792;2023-10-31T08:17:51;2.77;;;1.93;;
19187;SDS011;9726;52.198;8.792;2023-10-31T08:20:21;2.10;;;1.80;;
19187;SDS011;9726;52.198;8.792;2023-10-31T08:22:53;1.63;;;1.53;;
19187;SDS011;9726;52.198;8.792;2023-10-31T08:25:23;2.23;;;1.80;;
19187;SDS011;9726;52.198;8.792;2023-10-31T08:27:58;5.50;;;1.70;;
19187;SDS011;9726;52.198;8.792;2023-10-31T08:30:41;1.50;;;1.40;;
19187;SDS011;9726;52.198;8.792;2023-10-31T08:33:12;1.77;;;1.60;;
19187;SDS011;9726;52.198;8.792;2023-10-31T08:35:48;2.03;;;1.20;;
19187;SDS011;9726;52.198;8.792;2023-10-31T08:38:21;1.93;;;1.33;;
19187;SDS011;9726;52.198;8.792;2023-10-31T08:41:01;1.87;;;1.30;;
19187;SDS011;9726;52.198;8.792;2023-10-31T08:43:36;2.10;;;1.40;;
19187;SDS011;9726;52.198;8.792;2023-10-31T08:46:05;1.60;;;1.30;;
19187;SDS011;9726;52.198;8.792;2023-10-31T08:48:35;2.67;;;1.37;;
19187;SDS011;9726;52.198;8.792;2023-10-31T08:51:08;1.33;;;1.23;;
19187;SDS011;9726;52.198;8.792;2023-10-31T08:53:36;1.40;;;1.00;;
19187;SDS011;9726;52.198;8.792;2023-10-31T08:56:04;5.03;;;0.90;;
19187;SDS011;9726;52.198;8.792;2023-10-31T08:58:36;3.93;;;1.00;;
19187;SDS011;9726;52.198;8.792;2023-10-31T09:01:27;0.73;;;0.73;;
19187;SDS011;9726;52.198;8.792;2023-10-31T09:04:15;1.80;;;1.10;;
19187;SDS011;9726;52.198;8.792;2023-10-31T09:07:04;1.63;;;1.00;;
19187;SDS011;9726;52.198;8.792;2023-10-31T09:09:42;0.97;;;0.90;;
19187;SDS011;9726;52.198;8.792;2023-10-31T09:12:14;1.43;;;1.03;;
19187;SDS011;9726;52.198;8.792;2023-10-31T09:15:12;2.13;;;1.23;;
19187;SDS011;9726;52.198;8.792;2023-10-31T09:17:53;3.50;;;1.20;;
19187;SDS011;9726;52.198;8.792;2023-10-31T09:20:24;1.57;;;1.33;;
19187;SDS011;9726;52.198;8.792;2023-10-31T09:23:05;1.33;;;1.00;;
19187;SDS011;9726;52.198;8.792;2023-10-31T09:25:39;1.70;;;1.40;;
19187;SDS011;9726;52.198;8.792;2023-10-31T09:28:31;1.40;;;1.30;;
19187;SDS011;9726;52.198;8.792;2023-10-31T09:31:07;2.20;;;1.40;;
19187;SDS011;9726;52.198;8.792;2023-10-31T09:33:58;2.33;;;1.50;;
19187;SDS011;9726;52.198;8.792;2023-10-31T09:36:49;0.90;;;0.90;;
19187;SDS011;9726;52.198;8.792;2023-10-31T09:39:43;2.60;;;1.10;;
19187;SDS011;9726;52.198;8.792;2023-10-31T09:42:16;3.03;;;1.03;;
19187;SDS011;9726;52.198;8.792;2023-10-31T09:45:14;3.33;;;1.40;;
19187;SDS011;9726;52.198;8.792;2023-10-31T09:47:49;4.37;;;1.60;;
19187;SDS011;9726;52.198;8.792;2023-10-31T09:50:19;6.07;;;1.37;;
19187;SDS011;9726;52.198;8.792;2023-10-31T09:52:54;2.50;;;1.47;;
19187;SDS011;9726;52.198;8.792;2023-10-31T09:55:49;4.87;;;2.03;;
19187;SDS011;9726;52.198;8.792;2023-10-31T09:58:33;7.30;;;2.03;;
19187;SDS011;9726;52.198;8.792;2023-10-31T10:01:38;5.27;;;2.53;;
19187;SDS011;9726;52.198;8.792;2023-10-31T10:08:12;5.60;;;1.77;;
19187;SDS011;9726;52.198;8.792;2023-10-31T10:11:22;5.07;;;2.23;;
19187;SDS011;9726;52.198;8.792;2023-10-31T10:13:52;5.27;;;2.20;;
19187;SDS011;9726;52.198;8.792;2023-10-31T10:16:56;2.93;;;1.90;;
19187;SDS011;9726;52.198;8.792;2023-10-31T10:19:45;2.83;;;2.10;;
19187;SDS011;9726;52.198;8.792;2023-10-31T10:22:21;3.37;;;2.20;;
19187;SDS011;9726;52.198;8.792;2023-10-31T10:25:31;6.37;;;2.63;;
19187;SDS011;9726;52.198;8.792;2023-10-31T10:28:21;10.20;;;3.20;;
19187;SDS011;9726;52.198;8.792;2023-10-31T10:31:02;5.40;;;3.13;;
19187;SDS011;9726;52.198;8.792;2023-10-31T10:33:49;6.13;;;3.33;;
19187;SDS011;9726;52.198;8.792;2023-10-31T10:42:09;7.00;;;3.67;;
19187;SDS011;9726;52.198;8.792;2023-10-31T10:44:51;7.37;;;4.33;;
19187;SDS011;9726;52.198;8.792;2023-10-31T10:47:37;4.60;;;3.47;;
19187;SDS011;9726;52.198;8.792;2023-10-31T10:50:50;9.73;;;4.33;;
19187;SDS011;9726;52.198;8.792;2023-10-31T10:53:29;6.90;;;4.17;;
19187;SDS011;9726;52.198;8.792;2023-10-31T10:56:12;7.07;;;5.03;;
19187;SDS011;9726;52.198;8.792;2023-10-31T10:59:19;7.17;;;4.50;;
19187;SDS011;9726;52.198;8.792;2023-10-31T11:01:49;6.97;;;4.80;;
19187;SDS011;9726;52.198;8.792;2023-10-31T11:04:23;8.37;;;4.97;;
19187;SDS011;9726;52.198;8.792;2023-10-31T11:07:11;6.43;;;4.40;;
19187;SDS011;9726;52.198;8.792;2023-10-31T11:09:47;10.03;;;4.93;;
19187;SDS011;9726;52.198;8.792;2023-10-31T11:12:21;9.50;;;4.67;;
19187;SDS011;9726;52.198;8.792;2023-10-31T11:14:58;9.33;;;5.07;;
19187;SDS011;9726;52.198;8.792;2023-10-31T11:17:44;8.83;;;5.03;;
19187;SDS011;9726;52.198;8.792;2023-10-31T11:20:22;7.00;;;4.50;;
19187;SDS011;9726;52.198;8.792;2023-10-31T11:23:07;9.83;;;4.40;;
19187;SDS011;9726;52.198;8.792;2023-10-31T11:25:44;7.43;;;4.23;;
19187;SDS011;9726;52.198;8.792;2023-10-31T11:28:17;11.27;;;5.20;;
19187;SDS011;9726;52.198;8.792;2023-10-31T11:30:50;8.13;;;5.20;;
19187;SDS011;9726;52.198;8.792;2023-10-31T11:33:27;11.67;;;5.73;;
19187;SDS011;9726;52.198;8.792;2023-10-31T11:36:26;8.10;;;6.10;;
19187;SDS011;9726;52.198;8.792;2023-10-31T11:39:21;10.90;;;6.63;;
19187;SDS011;9726;52.198;8.792;2023-10-31T11:42:17;9.73;;;6.50;;
19187;SDS011;9726;52.198;8.792;2023-10-31T11:44:59;10.37;;;7.40;;
19187;SDS011;9726;52.198;8.792;2023-10-31T11:47:51;14.50;;;7.50;;
19187;SDS011;9726;52.198;8.792;2023-10-31T11:50:31;14.50;;;7.23;;
19187;SDS011;9726;52.198;8.792;2023-10-31T11:55:47;10.23;;;7.60;;
19187;SDS011;9726;52.198;8.792;2023-10-31T11:58:24;15.53;;;8.60;;
19187;SDS011;9726;52.198;8.792;2023-10-31T12:01:21;18.43;;;7.43;;
19187;SDS011;9726;52.198;8.792;2023-10-31T12:03:59;11.63;;;8.10;;
19187;SDS011;9726;52.198;8.792;2023-10-31T12:06:29;10.90;;;7.20;;
19187;SDS011;9726;52.198;8.792;2023-10-31T12:08:58;9.47;;;7.20;;
19187;SDS011;9726;52.198;8.792;2023-10-31T12:11:27;13.53;;;8.43;;
19187;SDS011;9726;52.198;8.792;2023-10-31T12:13:59;11.60;;;7.83;;
19187;SDS011;9726;52.198;8.792;2023-10-31T12:16:29;9.93;;;7.37;;
19187;SDS011;9726;52.198;8.792;2023-10-31T12:18:57;23.73;;;7.77;;
19187;SDS011;9726;52.198;8.792;2023-10-31T12:21:38;10.77;;;8.17;;
19187;SDS011;9726;52.198;8.792;2023-10-31T12:24:08;15.20;;;9.17;;
19187;SDS011;9726;52.198;8.792;2023-10-31T12:26:39;13.40;;;8.90;;
19187;SDS011;9726;52.198;8.792;2023-10-31T12:34:17;12.17;;;8.00;;
19187;SDS011;9726;52.198;8.792;2023-10-31T12:36:46;13.93;;;8.63;;
19187;SDS011;9726;52.198;8.792;2023-10-31T12:39:15;12.03;;;7.73;;
19187;SDS011;9726;52.198;8.792;2023-10-31T12:41:44;12.43;;;7.27;;
19187;SDS011;9726;52.198;8.792;2023-10-31T12:44:11;12.97;;;7.80;;
19187;SDS011;9726;52.198;8.792;2023-10-31T12:46:41;15.10;;;8.30;;
19187;SDS011;9726;52.198;8.792;2023-10-31T12:49:12;12.07;;;9.10;;
19187;SDS011;9726;52.198;8.792;2023-10-31T12:51:58;15.23;;;8.70;;
19187;SDS011;9726;52.198;8.792;2023-10-31T12:54:28;16.40;;;8.73;;
19187;SDS011;9726;52.198;8.792;2023-10-31T12:56:59;12.17;;;8.97;;
19187;SDS011;9726;52.198;8.792;2023-10-31T12:59:27;16.80;;;8.90;;
19187;SDS011;9726;52.198;8.792;2023-10-31T13:01:54;16.53;;;9.20;;
19187;SDS011;9726;52.198;8.792;2023-10-31T13:04:29;13.60;;;8.70;;
19187;SDS011;9726;52.198;8.792;2023-10-31T13:07:03;12.67;;;7.33;;
19187;SDS011;9726;52.198;8.792;2023-10-31T13:09:35;15.27;;;7.47;;
19187;SDS011;9726;52.198;8.792;2023-10-31T13:12:04;15.73;;;8.17;;
19187;SDS011;9726;52.198;8.792;2023-10-31T13:14:32;10.37;;;7.03;;
19187;SDS011;9726;52.198;8.792;2023-10-31T13:17:00;9.70;;;6.50;;
19187;SDS011;9726;52.198;8.792;2023-10-31T13:19:30;12.63;;;6.37;;
19187;SDS011;9726;52.198;8.792;2023-10-31T13:21:57;11.97;;;6.50;;
19187;SDS011;9726;52.198;8.792;2023-10-31T13:24:25;13.30;;;6.13;;
19187;SDS011;9726;52.198;8.792;2023-10-31T13:26:53;8.37;;;5.73;;
19187;SDS011;9726;52.198;8.792;2023-10-31T13:29:20;7.10;;;5.27;;
19187;SDS011;9726;52.198;8.792;2023-10-31T13:31:48;9.03;;;6.20;;
19187;SDS011;9726;52.198;8.792;2023-10-31T13:34:16;7.37;;;5.77;;
19187;SDS011;9726;52.198;8.792;2023-10-31T13:36:43;12.03;;;5.83;;
19187;SDS011;9726;52.198;8.792;2023-10-31T13:39:11;7.50;;;5.23;;
19187;SDS011;9726;52.198;8.792;2023-10-31T13:41:39;7.50;;;4.97;;
19187;SDS011;9726;52.198;8.792;2023-10-31T13:44:06;10.13;;;5.60;;
19187;SDS011;9726;52.198;8.792;2023-10-31T13:46:33;13.63;;;5.67;;
19187;SDS011;9726;52.198;8.792;2023-10-31T13:49:00;8.37;;;5.63;;
19187;SDS011;9726;52.198;8.792;2023-10-31T13:51:27;10.07;;;6.10;;
19187;SDS011;9726;52.198;8.792;2023-10-31T13:53:54;11.67;;;6.63;;
19187;SDS011;9726;52.198;8.792;2023-10-31T13:56:21;11.93;;;6.97;;
19187;SDS011;9726;52.198;8.792;2023-10-31T13:58:49;13.10;;;6.30;;
19187;SDS011;9726;52.198;8.792;2023-10-31T14:01:16;9.73;;;5.20;;
19187;SDS011;9726;52.198;8.792;2023-10-31T14:03:46;11.43;;;5.33;;
19187;SDS011;9726;52.198;8.792;2023-10-31T14:06:14;13.33;;;5.87;;
19187;SDS011;9726;52.198;8.792;2023-10-31T14:08:41;10.57;;;6.27;;
19187;SDS011;9726;52.198;8.792;2023-10-31T14:11:09;9.87;;;5.70;;
19187;SDS011;9726;52.198;8.792;2023-10-31T14:13:36;12.00;;;6.93;;
19187;SDS011;9726;52.198;8.792;2023-10-31T14:16:03;14.77;;;6.20;;
19187;SDS011;9726;52.198;8.792;2023-10-31T14:18:32;9.00;;;6.43;;
19187;SDS011;9726;52.198;8.792;2023-10-31T14:20:59;10.77;;;5.80;;
19187;SDS011;9726;52.198;8.792;2023-10-31T14:23:26;15.10;;;5.77;;
19187;SDS011;9726;52.198;8.792;2023-10-31T14:25:53;10.70;;;5.90;;
19187;SDS011;9726;52.198;8.792;2023-10-31T14:28:20;12.97;;;6.90;;
19187;SDS011;9726;52.198;8.792;2023-10-31T14:30:47;10.40;;;6.47;;
19187;SDS011;9726;52.198;8.792;2023-10-31T14:33:14;16.27;;;7.70;;
19187;SDS011;9726;52.198;8.792;2023-10-31T14:35:42;16.80;;;7.80;;
19187;SDS011;9726;52.198;8.792;2023-10-31T14:38:09;14.93;;;7.43;;
19187;SDS011;9726;52.198;8.792;2023-10-31T14:40:36;13.40;;;7.40;;
19187;SDS011;9726;52.198;8.792;2023-10-31T14:43:03;12.53;;;7.50;;
19187;SDS011;9726;52.198;8.792;2023-10-31T14:45:31;15.27;;;8.23;;
19187;SDS011;9726;52.198;8.792;2023-10-31T14:47:58;18.17;;;8.77;;
19187;SDS011;9726;52.198;8.792;2023-10-31T14:50:26;12.40;;;8.07;;
19187;SDS011;9726;52.198;8.792;2023-10-31T14:52:53;17.57;;;7.83;;
19187;SDS011;9726;52.198;8.792;2023-10-31T14:55:21;11.73;;;7.57;;
19187;SDS011;9726;52.198;8.792;2023-10-31T14:57:48;13.67;;;7.33;;
19187;SDS011;9726;52.198;8.792;2023-10-31T15:00:15;14.07;;;8.00;;
19187;SDS011;9726;52.198;8.792;2023-10-31T15:02:42;21.30;;;8.07;;
19187;SDS011;9726;52.198;8.792;2023-10-31T15:05:10;10.60;;;8.30;;
19187;SDS011;9726;52.198;8.792;2023-10-31T15:07:37;19.40;;;8.60;;
19187;SDS011;9726;52.198;8.792;2023-10-31T15:10:06;18.67;;;9.43;;
19187;SDS011;9726;52.198;8.792;2023-10-31T15:12:34;14.60;;;8.87;;
19187;SDS011;9726;52.198;8.792;2023-10-31T15:15:01;23.70;;;9.17;;
19187;SDS011;9726;52.198;8.792;2023-10-31T15:17:29;13.07;;;8.57;;
19187;SDS011;9726;52.198;8.792;2023-10-31T15:19:57;15.80;;;9.20;;
19187;SDS011;9726;52.198;8.792;2023-10-31T15:22:24;20.20;;;9.80;;
19187;SDS011;9726;52.198;8.792;2023-10-31T15:24:51;14.80;;;8.37;;
19187;SDS011;9726;52.198;8.792;2023-10-31T15:27:18;18.57;;;9.50;;
19187;SDS011;9726;52.198;8.792;2023-10-31T15:29:46;20.10;;;10.27;;
19187;SDS011;9726;52.198;8.792;2023-10-31T15:32:13;22.43;;;11.80;;
19187;SDS011;9726;52.198;8.792;2023-10-31T15:34:40;15.80;;;10.17;;
19187;SDS011;9726;52.198;8.792;2023-10-31T15:37:09;22.93;;;10.47;;
19187;SDS011;9726;52.198;8.792;2023-10-31T15:39:38;23.53;;;10.97;;
19187;SDS011;9726;52.198;8.792;2023-10-31T15:42:09;19.23;;;11.20;;
19187;SDS011;9726;52.198;8.792;2023-10-31T15:44:36;20.40;;;12.00;;